Bartlesville, OK (74006)

2:03 AM CDT on October 24, 2014 (GMT -0500)
East Drive | Change Station
CLOSE
Current Station
Personal Weather Station
Location: Bartlesville, OK
Elevation: 752 ft
Nearby Weather Stations

Elev 752 ft 36.73 °N, 95.91 °W | Updated 12 minutes ago

Mostly Cloudy
Mostly Cloudy
57.5 °F
Feels Like 57.5 °F
N
0.0
Wind Variable Wind from South

Today
High -- | Low -- °F
--% Chance of Precip.
Yesterday
High -- | Low -- °F
Precip. -- in
7:39 AM 6:35 PM
New Moon, 0% visible
Pressure 30.10 in
Visibility 7.0 miles
Clouds Mostly Cloudy 5000 ft
Dew Point 55 °F
Humidity 92%
Rainfall 0.00 in
Snow Depth Not available.
UV 0 out of 12
Pollen 3.30 out of 12
Air Quality Not available.
Flu Activity No Activity
METAR KBVO 240653Z AUTO 00000KT 7SM BKN050 14/13 A3012 RMK AO2 SLP191 T01390133

More Conditions Fewer Conditions

Pressure 30.10 in
Visibility 7.0 miles
Clouds Mostly Cloudy 5000 ft
Dew Point 55 °F
Humidity 92%
Rainfall 0.00 in
Snow Depth Not available.
UV 0 out of 12
Pollen 3.30 out of 12
Air Quality Not available.
Flu Activity No Activity
METAR KBVO 240653Z AUTO 00000KT 7SM BKN050 14/13 A3012 RMK AO2 SLP191 T01390133

More Conditions Fewer Conditions

10-Day Weather Forecast

Almanac

Astronomy

Oct. 24, 2014 Rise Set
Actual Time 7:39 AM CDT 6:35 PM CDT
Civil Twilight 7:13 AM CDT 7:02 PM CDT
Nautical Twilight 6:42 AM CDT 7:32 PM CDT
Astronomical Twilight 6:12 AM CDT 8:02 PM CDT
Moon 8:18 AM CDT 7:17 PM CDT
Length of Visible Light 11h 48m
Length of Day
10h 56m
Tomorrow will be 2m 10s shorter.
New Moon, 0% of the Moon is Illuminated
Today
New Moon
Oct 30
First Quarter
Nov 6
Full
Nov 14
Last Quarter
Nov 22
New

Today's Extremes

State Highs State Lows

Community

WunderPhotos

Upload Photos

1,764,510 photos uploaded!

WunderBlogs® & News

Nearby

Snow Depth

Station Depth Elevation
No new snow has been reported.

Earthquake Activity

City Distance Mag. Time & Date
Medford, Oklahoma 99 miles 3.0 2:06 AM CDT
2014-10-23
Pawnee, Oklahoma 65 miles 2.7 1:06 AM CDT
2014-10-23
Luther, Oklahoma 105 miles 2.5 10:36 PM CDT
2014-10-22
Crescent, Oklahoma 103 miles 2.7 9:58 PM CDT
2014-10-22
Minimum magnitude displayed is 2.5.

Coastal Water Temperatures

Place Temperature
No Stations Reporting

Nearby Weather Stations